Time;durP1;ratioP1;P1;durP2;ratioP2;P2;SDS_P1;SDS_P2;PMS_P1;PMS_P2;Temp;Humidity;BMP_temperature;BMP_pressure;BME280_temperature;BME280_humidity;BME280_pressure;Samples;Min_cycle;Max_cycle;Signal;HPM_P1;HPM_P2
2023/12/01 00:02:34;;;;;;;2.88;1.30;;;;;;;16.81;56.43;94825.97;10398765;28;20029;-29
2023/12/01 00:07:35;;;;;;;2.83;1.73;;;;;;;16.88;55.62;94832.50;10390263;28;20108;-29
2023/12/01 00:12:35;;;;;;;4.20;1.70;;;;;;;16.88;55.22;94833.34;10394469;28;20034;-29
2023/12/01 00:17:36;;;;;;;2.80;1.55;;;;;;;16.92;55.20;94827.34;10395808;28;20083;-29
2023/12/01 00:22:37;;;;;;;2.72;1.60;;;;;;;16.95;54.75;94849.19;10393312;28;20036;-30
2023/12/01 00:27:38;;;;;;;2.07;0.90;;;;;;;16.95;54.53;94834.03;10400582;28;20025;-30
2023/12/01 00:32:38;;;;;;;5.15;1.40;;;;;;;16.99;54.13;94853.31;10392253;28;20025;-29
2023/12/01 00:37:39;;;;;;;2.83;1.40;;;;;;;16.97;54.25;94842.41;10397181;28;20029;-29
2023/12/01 00:42:39;;;;;;;2.17;1.40;;;;;;;17.01;54.40;94849.06;10396659;28;20167;-30
2023/12/01 00:47:40;;;;;;;1.77;1.30;;;;;;;17.00;54.11;94843.16;10398038;28;20029;-30
2023/12/01 00:52:40;;;;;;;2.27;1.00;;;;;;;16.97;54.47;94837.34;10401288;28;20051;-30
2023/12/01 00:57:40;;;;;;;2.27;1.30;;;;;;;16.99;54.34;94840.69;10402102;28;20029;-29
2023/12/01 01:02:41;;;;;;;1.87;1.17;;;;;;;16.98;54.54;94831.44;10398595;28;20034;-30
2023/12/01 01:07:41;;;;;;;1.57;1.10;;;;;;;16.96;54.54;94834.00;10397273;28;20041;-30
2023/12/01 01:12:41;;;;;;;2.35;1.83;;;;;;;16.94;54.22;94828.16;10403684;28;20091;-29
2023/12/01 01:17:42;;;;;;;2.92;1.40;;;;;;;16.91;55.03;94838.31;10403597;28;20539;-29
2023/12/01 01:22:43;;;;;;;2.53;0.97;;;;;;;16.88;55.19;94855.25;10396239;28;20496;-29
2023/12/01 01:27:44;;;;;;;1.75;1.33;;;;;;;16.89;55.26;94862.00;10406194;28;20291;-30
2023/12/01 01:32:44;;;;;;;1.98;1.60;;;;;;;16.84;55.12;94873.91;10397002;28;20510;-29
2023/12/01 01:37:44;;;;;;;2.43;0.90;;;;;;;16.84;55.30;94886.53;10398229;28;20412;-29
2023/12/01 01:42:45;;;;;;;1.70;1.17;;;;;;;16.78;55.32;94896.78;10391039;28;20080;-30
2023/12/01 01:47:46;;;;;;;2.63;1.07;;;;;;;16.77;55.84;94902.69;10392649;28;20292;-29
2023/12/01 01:52:46;;;;;;;1.38;1.13;;;;;;;16.80;55.23;94905.13;10400692;28;20033;-29
2023/12/01 01:57:48;;;;;;;1.10;1.00;;;;;;;16.75;55.88;94907.78;10397014;28;20033;-29
2023/12/01 02:02:48;;;;;;;2.55;1.45;;;;;;;16.73;55.77;94908.69;10393521;28;20029;-29
2023/12/01 02:07:49;;;;;;;2.47;1.13;;;;;;;16.73;55.59;94903.63;10391439;28;20404;-29
2023/12/01 02:12:51;;;;;;;3.58;1.30;;;;;;;16.78;55.31;94907.72;10399726;28;20507;-30
2023/12/01 02:17:51;;;;;;;3.42;1.27;;;;;;;16.79;55.42;94903.47;10402546;28;20029;-29
2023/12/01 02:22:51;;;;;;;3.83;1.10;;;;;;;16.80;55.61;94900.09;10401026;28;20442;-29
2023/12/01 02:27:52;;;;;;;2.90;1.63;;;;;;;16.78;55.69;94889.19;10401601;28;20368;-30
2023/12/01 02:32:52;;;;;;;2.80;2.00;;;;;;;16.78;55.31;94904.34;10402481;28;20029;-30
2023/12/01 02:37:54;;;;;;;1.83;1.10;;;;;;;16.78;55.24;94911.94;10392991;28;20288;-30
2023/12/01 02:42:55;;;;;;;4.28;1.50;;;;;;;16.79;55.42;94894.22;10394342;28;20345;-31
2023/12/01 02:47:55;;;;;;;1.70;1.08;;;;;;;16.79;55.48;94898.44;10392035;28;20507;-30
2023/12/01 02:52:55;;;;;;;1.90;1.20;;;;;;;16.82;55.67;94903.44;10395399;28;20029;-29
2023/12/01 02:57:56;;;;;;;2.27;1.13;;;;;;;16.84;55.47;94914.34;10397246;28;20029;-29
2023/12/01 03:02:57;;;;;;;2.28;0.90;;;;;;;16.83;55.47;94910.16;10394912;28;20297;-29
2023/12/01 03:07:57;;;;;;;3.33;1.07;;;;;;;16.85;55.40;94898.31;10399575;28;20547;-29
2023/12/01 03:12:57;;;;;;;1.63;1.20;;;;;;;16.85;55.34;94883.13;10397172;28;20385;-30
2023/12/01 03:17:58;;;;;;;2.67;1.47;;;;;;;16.78;55.42;94871.50;10396525;28;20088;-29
2023/12/01 03:22:59;;;;;;;2.50;1.58;;;;;;;16.88;54.92;94888.09;10404565;28;20037;-30
2023/12/01 03:27:59;;;;;;;3.83;1.20;;;;;;;16.91;55.04;94878.75;10397264;28;20033;-29
2023/12/01 03:32:59;;;;;;;4.93;1.57;;;;;;;16.93;54.73;94873.69;10400340;28;20296;-29
2023/12/01 03:38:00;;;;;;;3.77;1.13;;;;;;;16.91;54.80;94870.38;10395160;28;20029;-29
2023/12/01 03:43:00;;;;;;;2.27;1.30;;;;;;;16.92;54.88;94887.19;10402156;28;20792;-30
2023/12/01 03:48:01;;;;;;;3.10;1.23;;;;;;;16.90;54.83;94882.16;10398358;28;20521;-29
2023/12/01 03:53:01;;;;;;;1.70;0.93;;;;;;;16.90;54.61;94882.16;10394878;28;20303;-29
2023/12/01 03:58:02;;;;;;;2.63;1.20;;;;;;;16.91;54.90;94905.75;10403138;28;20037;-29
2023/12/01 04:03:03;;;;;;;2.25;1.00;;;;;;;16.92;54.59;94908.22;10389885;28;20116;-30
2023/12/01 04:08:03;;;;;;;2.47;1.17;;;;;;;16.91;54.72;94920.91;10398114;28;20034;-29
2023/12/01 04:13:07;;;;;;;2.65;1.15;;;;;;;16.79;54.98;94898.44;10386641;28;20288;-30
2023/12/01 04:18:08;;;;;;;3.95;1.75;;;;;;;16.86;54.95;94927.75;10407694;28;20048;-29
2023/12/01 04:23:10;;;;;;;4.38;1.25;;;;;;;16.86;54.75;94921.03;10391762;28;20507;-29
2023/12/01 04:28:10;;;;;;;2.47;1.05;;;;;;;16.91;55.07;94928.50;10389853;28;20029;-30
2023/12/01 04:33:13;;;;;;;3.50;1.10;;;;;;;16.86;54.73;94931.13;10402162;28;20038;-29
2023/12/01 04:38:13;;;;;;;1.90;1.02;;;;;;;16.86;55.21;94925.22;10402301;28;20404;-30
2023/12/01 04:43:14;;;;;;;3.93;1.10;;;;;;;16.89;54.77;94936.09;10395528;28;20037;-30
2023/12/01 04:48:14;;;;;;;1.50;0.83;;;;;;;16.97;53.46;94925.81;10392038;28;20039;-29
2023/12/01 04:53:15;;;;;;;1.63;0.97;;;;;;;17.02;53.19;94926.56;10392260;28;20447;-30
2023/12/01 04:58:15;;;;;;;2.90;1.20;;;;;;;17.05;52.89;94929.00;10389357;28;20332;-29
2023/12/01 05:03:16;;;;;;;0.98;0.85;;;;;;;17.09;52.94;94923.03;10384104;28;20710;-29
2023/12/01 05:08:20;;;;;;;3.03;0.90;;;;;;;17.10;52.85;94924.69;10391665;28;20498;-31
2023/12/01 05:13:21;;;;;;;4.05;1.42;;;;;;;17.13;52.60;94909.41;10389033;28;21209;-29
2023/12/01 05:18:22;;;;;;;3.30;1.80;;;;;;;17.16;52.96;94919.50;10385871;28;20080;-30
2023/12/01 05:23:22;;;;;;;2.40;1.15;;;;;;;17.19;52.21;94929.50;10366016;28;20033;-30
2023/12/01 05:28:22;;;;;;;3.97;1.50;;;;;;;17.22;52.46;94929.44;10403681;28;20030;-29
2023/12/01 05:33:23;;;;;;;2.60;1.03;;;;;;;17.24;52.14;94940.38;10410628;28;20510;-29
2023/12/01 05:38:23;;;;;;;2.67;1.63;;;;;;;17.22;52.68;94926.91;10397276;28;20038;-29
2023/12/01 05:43:23;;;;;;;3.28;1.15;;;;;;;17.25;51.97;94929.38;10404191;28;20510;-29
2023/12/01 05:48:25;;;;;;;4.67;1.50;;;;;;;17.24;51.88;94938.66;10395978;28;20045;-29
2023/12/01 05:53:25;;;;;;;2.42;1.17;;;;;;;17.21;51.85;94968.22;10396203;28;20042;-29
2023/12/01 05:58:26;;;;;;;3.67;1.67;;;;;;;17.24;51.62;94961.41;10405061;28;20407;-31
2023/12/01 06:03:26;;;;;;;4.32;1.27;;;;;;;17.23;51.62;94974.94;10399431;28;20038;-29
2023/12/01 06:08:27;;;;;;;4.77;1.40;;;;;;;17.17;51.96;94976.78;10401822;28;20412;-29
2023/12/01 06:13:28;;;;;;;3.72;1.15;;;;;;;17.19;51.46;94980.94;10405286;28;20054;-29
2023/12/01 06:18:29;;;;;;;1.87;1.03;;;;;;;17.19;51.43;94975.88;10403379;28;20033;-29
2023/12/01 06:23:32;;;;;;;2.08;1.38;;;;;;;17.18;51.34;94983.47;10394851;28;20038;-30
2023/12/01 06:28:33;;;;;;;4.72;1.15;;;;;;;17.13;52.09;94970.09;10400835;28;20033;-30
2023/12/01 06:33:34;;;;;;;3.08;1.35;;;;;;;16.98;50.57;94973.00;10405779;28;20038;-29
2023/12/01 06:38:34;;;;;;;5.80;1.30;;;;;;;17.03;50.67;94972.03;10393880;28;20034;-29
2023/12/01 06:43:34;;;;;;;4.90;1.07;;;;;;;17.07;51.33;94976.13;10403917;28;20087;-30
2023/12/01 06:48:35;;;;;;;3.47;1.43;;;;;;;17.09;51.47;94991.28;10396061;28;20037;-30
2023/12/01 06:53:35;;;;;;;3.20;0.80;;;;;;;17.05;51.16;94984.59;10403991;28;20048;-29
2023/12/01 06:58:35;;;;;;;1.80;1.10;;;;;;;17.01;50.85;94966.19;10402701;28;20092;-29
2023/12/01 07:03:36;;;;;;;2.60;0.80;;;;;;;17.10;51.50;94990.41;10389039;28;20481;-31
2023/12/01 07:08:36;;;;;;;3.33;0.90;;;;;;;17.05;51.25;94989.66;10397899;28;20416;-29
2023/12/01 07:13:36;;;;;;;3.87;1.37;;;;;;;17.08;51.98;94985.38;10399721;28;20044;-29
2023/12/01 07:18:40;;;;;;;4.38;0.85;;;;;;;17.03;52.00;95004.03;10400669;28;20300;-29
2023/12/01 07:23:43;;;;;;;5.03;1.40;;;;;;;17.07;51.90;95018.28;10396587;28;20075;-29
2023/12/01 07:28:43;;;;;;;3.00;1.17;;;;;;;17.08;51.65;95022.50;10393551;28;20035;-29
2023/12/01 07:33:44;;;;;;;2.20;1.20;;;;;;;17.07;52.05;95033.47;10400106;28;20043;-29
2023/12/01 07:38:44;;;;;;;1.37;1.10;;;;;;;17.04;52.14;95023.41;10399303;28;20107;-32
2023/12/01 07:43:44;;;;;;;1.47;0.80;;;;;;;17.02;52.36;95033.56;10393086;28;20032;-29
2023/12/01 07:48:45;;;;;;;1.70;0.93;;;;;;;17.00;52.41;95034.44;10400520;28;20028;-29
2023/12/01 07:53:45;;;;;;;1.83;1.20;;;;;;;16.96;52.14;95053.91;10388649;28;20091;-29
2023/12/01 07:58:45;;;;;;;6.57;1.02;;;;;;;17.02;53.24;95048.72;10385579;28;20490;-29
2023/12/01 08:03:46;;;;;;;2.13;1.00;;;;;;;17.07;52.44;95066.34;10398737;28;20033;-29
2023/12/01 08:08:46;;;;;;;1.40;0.82;;;;;;;17.13;51.60;95045.97;10389417;28;20483;-29
2023/12/01 08:13:48;;;;;;;6.63;1.10;;;;;;;17.15;51.45;95034.13;10388902;28;20093;-30
2023/12/01 08:18:48;;;;;;;1.50;1.05;;;;;;;17.12;51.35;95024.06;10389960;28;20029;-30
2023/12/01 08:23:50;;;;;;;1.90;1.20;;;;;;;17.02;50.76;95013.34;10387653;28;20033;-30
2023/12/01 08:28:53;;;;;;;2.33;1.00;;;;;;;17.11;51.40;95024.94;10382936;28;20030;-30
2023/12/01 08:33:53;;;;;;;2.00;1.27;;;;;;;16.94;50.35;95039.63;10385874;28;20029;-29
2023/12/01 08:38:54;;;;;;;4.00;1.50;;;;;;;16.97;51.27;95029.44;10386929;28;20056;-30
2023/12/01 08:43:54;;;;;;;2.00;1.60;;;;;;;17.03;52.36;95036.91;10387429;28;20044;-29
2023/12/01 08:48:55;;;;;;;5.70;1.87;;;;;;;17.03;52.88;95035.22;10396477;28;20018;-29
2023/12/01 08:53:55;;;;;;;1.80;1.48;;;;;;;17.02;53.31;95043.69;10389481;28;20179;-29
2023/12/01 08:58:56;;;;;;;2.17;1.53;;;;;;;17.04;53.22;95067.22;10394817;28;20063;-30
2023/12/01 09:03:56;;;;;;;2.70;1.63;;;;;;;17.01;54.12;95067.28;10392448;28;20334;-29
2023/12/01 09:08:56;;;;;;;2.40;1.23;;;;;;;17.03;54.82;95074.81;10392369;28;20040;-29
2023/12/01 09:13:57;;;;;;;3.33;1.80;;;;;;;16.99;55.14;95053.03;10391262;28;20124;-29
2023/12/01 09:18:57;;;;;;;2.78;1.30;;;;;;;16.94;55.76;95037.09;10392640;28;20061;-29
2023/12/01 09:23:57;;;;;;;2.53;1.53;;;;;;;16.88;56.55;95047.31;10397261;28;20447;-30
2023/12/01 09:28:58;;;;;;;2.13;1.20;;;;;;;16.88;56.45;95043.13;10393312;28;20483;-29
2023/12/01 09:33:58;;;;;;;2.67;1.40;;;;;;;16.86;56.88;95028.84;10398407;28;20249;-29
2023/12/01 09:38:59;;;;;;;1.67;1.47;;;;;;;16.87;56.29;95027.97;10398044;28;20034;-29
2023/12/01 09:44:01;;;;;;;1.63;1.00;;;;;;;16.83;55.52;95006.19;10385820;28;20037;-29
2023/12/01 09:49:05;;;;;;;1.55;1.25;;;;;;;16.88;55.48;95017.84;10395853;28;20026;-29
2023/12/01 09:54:06;;;;;;;2.35;1.20;;;;;;;16.87;55.01;95010.28;10391608;28;20072;-29
2023/12/01 09:59:07;;;;;;;2.30;1.08;;;;;;;16.85;55.49;95012.03;10399852;28;20049;-29
2023/12/01 10:04:08;;;;;;;2.95;1.10;;;;;;;16.86;55.04;95022.09;10404450;28;20045;-30
2023/12/01 10:09:10;;;;;;;1.30;1.20;;;;;;;16.87;55.00;94998.50;10387696;28;20480;-29
2023/12/01 10:14:10;;;;;;;1.85;1.35;;;;;;;16.89;54.98;95006.06;10388850;28;20504;-29
2023/12/01 10:19:12;;;;;;;1.93;1.10;;;;;;;16.90;55.13;95017.81;10390203;28;20049;-29
2023/12/01 10:24:22;;;;;;;2.28;1.20;;;;;;;16.90;54.62;95017.81;10389137;28;20169;-29
2023/12/01 10:29:23;;;;;;;1.55;1.08;;;;;;;16.92;54.48;95031.25;10388505;28;20400;-29
2023/12/01 10:34:24;;;;;;;1.67;1.30;;;;;;;16.90;54.76;95006.00;10392124;28;20033;-29
2023/12/01 10:39:27;;;;;;;2.05;1.00;;;;;;;16.89;54.54;94990.88;10393170;28;20033;-31
2023/12/01 10:44:28;;;;;;;1.20;1.10;;;;;;;16.91;54.33;94986.63;10393878;28;20049;-29
2023/12/01 10:49:29;;;;;;;1.77;1.00;;;;;;;16.93;53.48;94982.38;10389175;28;20451;-29
2023/12/01 10:54:31;;;;;;;1.55;1.33;;;;;;;16.87;53.91;94973.22;10386939;28;20129;-30
2023/12/01 10:59:33;;;;;;;1.42;1.10;;;;;;;16.99;53.58;94977.19;10393490;28;20065;-29
2023/12/01 11:04:35;;;;;;;1.25;1.00;;;;;;;16.98;53.46;94965.41;10383500;28;20037;-29
2023/12/01 11:09:50;;;;;;;0.77;0.77;;;;;;;17.00;53.83;94969.53;10391209;28;20033;-28
2023/12/01 11:14:52;;;;;;;2.38;1.20;;;;;;;17.00;53.71;94974.59;10384613;28;20557;-29
2023/12/01 11:19:53;;;;;;;1.48;1.15;;;;;;;17.03;52.99;94969.50;10387358;28;20114;-29
2023/12/01 11:24:54;;;;;;;2.60;1.20;;;;;;;17.05;53.26;94954.28;10395239;28;20037;-29
2023/12/01 11:30:11;;;;;;;1.70;1.13;;;;;;;17.06;52.49;94973.66;10397216;28;20068;-30
2023/12/01 11:35:13;;;;;;;2.83;1.35;;;;;;;17.02;52.56;94967.00;10390554;28;20041;-30
2023/12/01 11:40:22;;;;;;;1.17;1.05;;;;;;;17.06;53.01;94969.41;10392376;28;20051;-29
2023/12/01 11:45:35;;;;;;;3.65;1.30;;;;;;;17.06;52.77;94984.59;10389075;28;20484;-29
2023/12/01 11:50:38;;;;;;;2.80;1.10;;;;;;;17.02;52.50;94969.53;10388701;28;20045;-29
2023/12/01 11:55:39;;;;;;;2.35;1.38;;;;;;;17.06;52.68;94983.78;10394253;28;20061;-29
2023/12/01 12:00:40;;;;;;;1.85;1.23;;;;;;;17.05;52.22;94989.66;10397700;28;20126;-29
2023/12/01 12:05:40;;;;;;;1.73;1.30;;;;;;;17.07;52.19;94996.34;10390898;28;20111;-30
2023/12/01 12:10:41;;;;;;;2.43;1.20;;;;;;;17.08;52.27;94987.09;10386334;28;20567;-29
2023/12/01 12:15:41;;;;;;;1.27;1.17;;;;;;;17.08;52.52;94998.03;10388410;28;20057;-31
2023/12/01 12:20:42;;;;;;;1.73;1.30;;;;;;;17.11;52.09;94982.81;10400386;28;20079;-29
2023/12/01 12:25:42;;;;;;;1.63;1.17;;;;;;;17.13;51.67;94996.22;10396359;28;20435;-29
2023/12/01 12:30:43;;;;;;;3.83;1.63;;;;;;;17.10;51.92;95000.53;10403700;28;20111;-30
2023/12/01 12:35:44;;;;;;;4.30;1.87;;;;;;;17.15;51.96;94996.22;10403551;28;20291;-31
2023/12/01 12:40:44;;;;;;;2.80;1.67;;;;;;;17.15;51.85;95003.78;10406351;28;20100;-29
2023/12/01 12:45:44;;;;;;;3.70;1.52;;;;;;;17.16;52.15;95005.44;10398553;28;20036;-29
2023/12/01 12:50:46;;;;;;;2.33;1.60;;;;;;;17.16;51.84;95010.50;10394737;28;20048;-30
2023/12/01 12:55:46;;;;;;;12.75;7.45;;;;;;;17.15;53.52;95003.78;10404715;28;20116;-29
2023/12/01 13:00:47;;;;;;;14.13;7.13;;;;;;;17.14;53.42;95007.19;10407654;28;20519;-29
2023/12/01 13:05:47;;;;;;;15.95;7.75;;;;;;;17.15;54.05;94996.22;10401849;28;20287;-29
2023/12/01 13:10:48;;;;;;;19.83;10.47;;;;;;;17.13;54.50;94981.06;10413509;28;20487;-30
2023/12/01 13:15:48;;;;;;;20.07;8.17;;;;;;;17.06;51.62;94978.72;10396843;28;20614;-29
2023/12/01 13:20:49;;;;;;;14.33;7.83;;;;;;;17.09;52.89;94978.63;10390065;28;20033;-30
2023/12/01 13:25:49;;;;;;;21.27;8.25;;;;;;;17.10;52.86;94972.72;10399345;28;20367;-30
2023/12/01 13:30:50;;;;;;;14.73;7.28;;;;;;;17.10;53.18;94976.09;10398746;28;20033;-30
2023/12/01 13:35:51;;;;;;;13.23;6.72;;;;;;;17.12;53.68;94976.03;10397476;28;20559;-29
2023/12/01 13:40:51;;;;;;;11.02;6.47;;;;;;;17.11;53.24;94980.28;10390964;28;20816;-30
2023/12/01 13:45:51;;;;;;;9.93;6.37;;;;;;;17.13;53.11;94986.13;10390465;28;20026;-29
2023/12/01 13:50:52;;;;;;;9.83;6.17;;;;;;;17.13;53.28;95006.34;10396256;28;20280;-30
2023/12/01 13:55:52;;;;;;;12.95;7.32;;;;;;;17.13;53.27;95000.44;10394572;28;20041;-29
2023/12/01 14:00:53;;;;;;;13.90;6.23;;;;;;;17.13;52.75;95005.50;10392467;28;20041;-29
2023/12/01 14:05:53;;;;;;;10.23;5.50;;;;;;;17.06;53.20;94984.59;10395583;28;20025;-29
2023/12/01 14:10:55;;;;;;;11.93;6.10;;;;;;;17.10;53.04;95000.53;10390848;28;20176;-29
2023/12/01 14:15:56;;;;;;;10.60;6.07;;;;;;;16.96;53.01;94982.28;10395728;28;20292;-30
2023/12/01 14:20:57;;;;;;;9.93;6.50;;;;;;;17.08;53.38;95002.25;10388826;28;20029;-30
2023/12/01 14:25:57;;;;;;;10.25;5.05;;;;;;;17.05;52.90;94987.97;10394957;28;20292;-30
2023/12/01 14:30:58;;;;;;;9.73;5.67;;;;;;;17.01;53.11;94991.47;10388477;28;20037;-29
2023/12/01 14:35:58;;;;;;;9.60;5.43;;;;;;;17.01;52.91;94990.63;10391335;28;20034;-32
2023/12/01 14:40:58;;;;;;;9.77;4.57;;;;;;;16.99;53.43;94997.41;10394214;28;20296;-30
2023/12/01 14:46:00;;;;;;;10.27;5.43;;;;;;;16.97;53.72;94996.59;10384980;28;20547;-29
2023/12/01 14:51:00;;;;;;;7.40;4.53;;;;;;;16.96;53.37;94997.44;10390343;28;20113;-29
2023/12/01 14:56:01;;;;;;;8.95;4.60;;;;;;;16.94;53.62;94994.13;10385742;28;20038;-30
2023/12/01 15:01:01;;;;;;;7.00;4.27;;;;;;;16.96;53.32;95002.50;10398079;28;20060;-29
2023/12/01 15:06:01;;;;;;;6.20;4.37;;;;;;;16.93;53.31;95005.09;10386006;28;20292;-30
2023/12/01 15:11:02;;;;;;;8.13;3.90;;;;;;;16.93;53.31;95000.06;10384298;28;20542;-29
2023/12/01 15:16:02;;;;;;;9.57;4.25;;;;;;;16.87;53.79;94978.28;10390407;28;20300;-29
2023/12/01 15:21:06;;;;;;;5.13;3.88;;;;;;;16.94;53.18;94984.03;10384907;28;20468;-30
2023/12/01 15:26:11;;;;;;;9.35;5.00;;;;;;;16.90;53.06;94974.84;10388888;28;20021;-29
2023/12/01 15:31:12;;;;;;;6.20;3.83;;;;;;;16.84;53.24;94959.81;10388969;28;20032;-29
2023/12/01 15:36:12;;;;;;;5.93;3.67;;;;;;;16.91;53.31;94961.34;10386430;28;20034;-29
2023/12/01 15:41:12;;;;;;;6.33;3.60;;;;;;;16.93;52.73;94963.00;10392299;28;20030;-29
2023/12/01 15:46:13;;;;;;;7.37;3.97;;;;;;;16.98;52.58;94965.41;10387915;28;20038;-29
2023/12/01 15:51:13;;;;;;;5.00;3.80;;;;;;;16.97;52.60;94963.72;10384789;28;20300;-30
2023/12/01 15:56:13;;;;;;;5.30;3.50;;;;;;;16.98;52.56;94961.19;10385360;28;20123;-30
2023/12/01 16:01:14;;;;;;;5.53;4.13;;;;;;;17.00;52.52;94963.69;10380533;28;20528;-29
2023/12/01 16:06:14;;;;;;;5.23;3.23;;;;;;;17.01;52.60;94963.66;10380638;28;20049;-29
2023/12/01 16:11:14;;;;;;;8.20;4.30;;;;;;;17.00;52.66;94967.00;10380311;28;20101;-29
2023/12/01 16:16:15;;;;;;;6.10;3.50;;;;;;;16.98;52.64;94975.53;10378428;28;20042;-29
2023/12/01 16:21:20;;;;;;;5.50;3.72;;;;;;;16.95;52.82;94965.47;10382492;28;20296;-30
2023/12/01 16:26:20;;;;;;;7.75;4.20;;;;;;;16.95;52.85;94980.63;10384558;28;20026;-29
2023/12/01 16:31:21;;;;;;;5.22;3.58;;;;;;;16.93;52.67;95000.06;10376149;28;20396;-29
2023/12/01 16:36:21;;;;;;;8.05;3.00;;;;;;;16.94;53.12;94999.19;10390370;28;20044;-30
2023/12/01 16:41:21;;;;;;;6.10;3.30;;;;;;;16.89;52.89;95014.44;10377974;28;20074;-29
2023/12/01 16:46:22;;;;;;;4.53;3.13;;;;;;;16.95;52.75;95016.00;10378609;28;20037;-29
2023/12/01 16:51:22;;;;;;;3.63;2.75;;;;;;;16.91;52.68;95012.72;10384584;28;20030;-29
2023/12/01 16:56:25;;;;;;;4.13;3.00;;;;;;;17.01;52.19;95019.25;10379043;28;20092;-30
2023/12/01 17:01:25;;;;;;;6.03;3.28;;;;;;;17.06;52.17;95019.16;10381489;28;20032;-28
2023/12/01 17:06:26;;;;;;;5.07;3.87;;;;;;;17.04;51.69;95020.88;10381056;28;20387;-29
2023/12/01 17:11:27;;;;;;;4.70;2.75;;;;;;;17.10;51.41;95023.28;10400931;28;20076;-28
2023/12/01 17:16:27;;;;;;;3.50;2.40;;;;;;;17.11;51.72;95017.34;10404155;28;20545;-29
2023/12/01 17:21:27;;;;;;;3.10;2.43;;;;;;;17.11;51.67;95013.13;10418116;28;20118;-29
2023/12/01 17:26:28;;;;;;;3.87;2.70;;;;;;;17.02;51.46;95009.97;10415969;28;20502;-29
2023/12/01 17:31:28;;;;;;;3.53;2.47;;;;;;;17.11;52.03;95017.34;10411964;28;20504;-30
2023/12/01 17:36:28;;;;;;;2.90;2.50;;;;;;;17.11;51.61;95017.34;10402502;28;20614;-30
2023/12/01 17:41:31;;;;;;;4.43;2.50;;;;;;;17.06;51.96;95019.97;10402141;28;20048;-31
2023/12/01 17:46:32;;;;;;;4.75;2.50;;;;;;;17.05;51.73;95012.41;10384798;28;20060;-29
2023/12/01 17:51:32;;;;;;;6.27;2.80;;;;;;;17.05;51.65;95022.53;10409453;28;20485;-29
2023/12/01 17:56:35;;;;;;;3.58;2.70;;;;;;;17.07;51.88;95018.28;10399876;28;20030;-30
2023/12/01 18:01:36;;;;;;;3.80;2.78;;;;;;;17.08;51.70;95019.97;10410712;28;20035;-29
2023/12/01 18:06:37;;;;;;;3.58;2.50;;;;;;;17.07;51.62;95024.16;10405139;28;20025;-29
2023/12/01 18:11:41;;;;;;;2.63;2.33;;;;;;;17.03;52.09;95014.16;10401666;28;20033;-31
2023/12/01 18:16:41;;;;;;;4.43;2.80;;;;;;;16.94;52.36;95019.41;10393581;28;20810;-29
2023/12/01 18:21:41;;;;;;;3.20;2.25;;;;;;;16.97;52.64;95025.22;10397283;28;20033;-29
2023/12/01 18:26:42;;;;;;;5.60;2.60;;;;;;;16.98;52.54;95031.13;10400465;28;20040;-31
2023/12/01 18:31:42;;;;;;;4.33;2.40;;;;;;;17.02;52.84;95007.44;10398490;28;20038;-29
2023/12/01 18:36:43;;;;;;;4.97;2.60;;;;;;;17.09;51.93;95019.09;10393946;28;20033;-29
2023/12/01 18:41:43;;;;;;;3.72;2.80;;;;;;;17.08;52.26;95017.44;10411178;28;20032;-29
2023/12/01 18:46:45;;;;;;;3.40;2.63;;;;;;;17.09;51.66;95011.50;10402547;28;20044;-29
2023/12/01 18:51:45;;;;;;;3.83;3.00;;;;;;;17.07;51.92;95020.81;10403436;28;20041;-29
2023/12/01 18:56:46;;;;;;;4.32;3.28;;;;;;;17.07;51.98;95038.53;10404462;28;20704;-30
2023/12/01 19:01:47;;;;;;;3.70;2.37;;;;;;;17.08;51.58;95032.59;10414116;28;20456;-29
2023/12/01 19:06:48;;;;;;;2.70;2.20;;;;;;;17.05;51.53;95037.69;10407235;28;20028;-29
2023/12/01 19:11:48;;;;;;;3.10;2.45;;;;;;;17.06;50.88;95024.22;10397183;28;20636;-30
2023/12/01 19:16:49;;;;;;;3.80;2.73;;;;;;;16.94;51.59;95009.31;10396713;28;20044;-30
2023/12/01 19:21:49;;;;;;;4.18;2.47;;;;;;;16.99;51.19;95027.75;10397746;28;20041;-31
2023/12/01 19:26:49;;;;;;;3.23;2.63;;;;;;;16.95;51.31;95034.56;10392551;28;20669;-29
2023/12/01 19:31:50;;;;;;;3.00;2.40;;;;;;;16.94;51.29;95047.22;10404267;28;20295;-28
2023/12/01 19:36:50;;;;;;;3.17;2.80;;;;;;;16.93;51.44;95035.44;10410384;28;20042;-29
2023/12/01 19:41:51;;;;;;;2.85;2.50;;;;;;;16.95;51.01;95048.88;10412957;28;20412;-29
2023/12/01 19:46:53;;;;;;;5.53;2.67;;;;;;;16.94;51.31;95044.69;10405172;28;20488;-29
2023/12/01 19:51:54;;;;;;;4.28;2.33;;;;;;;17.01;51.46;95066.44;10405079;28;20071;-30
2023/12/01 19:56:54;;;;;;;4.37;3.00;;;;;;;17.00;51.16;95064.78;10390526;28;20509;-29
2023/12/01 20:01:57;;;;;;;5.23;2.70;;;;;;;17.03;50.58;95059.66;10411147;28;20298;-29
2023/12/01 20:06:57;;;;;;;6.30;2.63;;;;;;;17.08;50.61;95068.00;10393272;28;20034;-29
2023/12/01 20:11:58;;;;;;;6.17;3.00;;;;;;;16.99;50.43;95042.91;10395050;28;20033;-29
2023/12/01 20:16:58;;;;;;;4.43;2.87;;;;;;;17.08;50.43;95057.88;10397639;28;20115;-29
2023/12/01 20:21:58;;;;;;;3.63;2.43;;;;;;;17.08;50.00;95047.75;10392159;28;20511;-29
2023/12/01 20:26:59;;;;;;;4.57;2.83;;;;;;;17.10;49.73;95056.16;10405985;28;20500;-30
2023/12/01 20:32:00;;;;;;;4.03;3.13;;;;;;;17.10;49.54;95056.16;10403226;28;20502;-29
2023/12/01 20:37:00;;;;;;;3.27;2.97;;;;;;;17.10;49.47;95051.09;10395743;28;20042;-29
2023/12/01 20:42:00;;;;;;;3.73;2.70;;;;;;;17.11;49.79;95057.81;10398856;28;20281;-32
2023/12/01 20:47:01;;;;;;;4.77;3.33;;;;;;;17.10;49.94;95063.72;10402406;28;20029;-30
2023/12/01 20:52:03;;;;;;;2.83;2.53;;;;;;;17.13;49.47;95061.13;10410623;28;20037;-29
2023/12/01 20:57:03;;;;;;;5.30;3.58;;;;;;;17.12;49.54;95072.09;10407663;28;20033;-30
2023/12/01 21:02:04;;;;;;;5.43;3.17;;;;;;;17.11;49.65;95068.75;10404974;28;20392;-29
2023/12/01 21:07:04;;;;;;;4.53;3.42;;;;;;;17.11;49.93;95075.50;10403999;28;20040;-29
2023/12/01 21:12:05;;;;;;;4.93;3.27;;;;;;;17.10;50.06;95066.25;10408214;28;20033;-30
2023/12/01 21:17:05;;;;;;;4.20;3.10;;;;;;;17.09;49.26;95046.91;10396166;28;20029;-29
2023/12/01 21:22:06;;;;;;;5.00;3.57;;;;;;;17.12;49.45;95034.19;10398019;28;20032;-28
2023/12/01 21:27:06;;;;;;;5.70;3.43;;;;;;;17.09;49.96;95031.72;10413513;28;20025;-29
2023/12/01 21:32:06;;;;;;;4.20;3.23;;;;;;;17.15;50.19;95034.94;10414319;28;20119;-29
2023/12/01 21:37:07;;;;;;;4.20;3.57;;;;;;;17.14;51.46;95032.47;10397781;28;20034;-30
2023/12/01 21:42:07;;;;;;;5.80;3.10;;;;;;;17.11;50.77;95019.88;10398536;28;20049;-29
2023/12/01 21:47:10;;;;;;;4.43;3.20;;;;;;;17.11;51.18;95017.34;10408065;28;20733;-30
2023/12/01 21:52:10;;;;;;;3.88;3.38;;;;;;;17.16;50.32;95033.28;10396848;28;20064;-29
2023/12/01 21:57:11;;;;;;;8.95;3.30;;;;;;;17.10;51.32;95040.97;10402651;28;20052;-30
2023/12/01 22:02:11;;;;;;;4.23;3.23;;;;;;;17.15;50.25;95034.13;10405662;28;20037;-29
2023/12/01 22:07:12;;;;;;;3.75;3.33;;;;;;;17.15;50.53;95036.66;10405331;28;20284;-29
2023/12/01 22:12:12;;;;;;;3.40;2.37;;;;;;;17.11;50.49;95048.53;10398629;28;20046;-30
2023/12/01 22:17:13;;;;;;;4.90;3.23;;;;;;;17.10;50.50;95056.16;10402730;28;20401;-29
2023/12/01 22:22:13;;;;;;;5.13;3.80;;;;;;;17.12;50.18;95069.56;10402956;28;20041;-29
2023/12/01 22:27:13;;;;;;;8.23;3.40;;;;;;;17.12;50.19;95084.75;10399731;28;20572;-29
2023/12/01 22:32:14;;;;;;;4.10;3.60;;;;;;;17.10;49.35;95092.38;10405216;28;20299;-30
2023/12/01 22:37:14;;;;;;;3.53;3.13;;;;;;;17.11;50.93;95083.09;10406549;28;20033;-29
2023/12/01 22:42:15;;;;;;;4.10;3.47;;;;;;;17.16;50.18;95104.06;10406179;28;20300;-30
2023/12/01 22:47:15;;;;;;;6.30;3.47;;;;;;;17.13;50.29;95101.56;10406219;28;20353;-29
2023/12/01 22:52:15;;;;;;;4.63;3.23;;;;;;;17.09;50.22;95087.34;10404405;28;20041;-30
2023/12/01 22:57:16;;;;;;;4.23;2.93;;;;;;;17.08;50.19;95083.97;10399619;28;20338;-31
2023/12/01 23:02:16;;;;;;;7.78;3.13;;;;;;;17.06;49.74;95073.06;10399341;28;20042;-29
2023/12/01 23:07:17;;;;;;;5.87;3.40;;;;;;;17.06;49.55;95079.84;10401214;28;20034;-29
2023/12/01 23:12:17;;;;;;;4.93;3.47;;;;;;;17.04;49.21;95092.50;10400203;28;20052;-29
2023/12/01 23:17:18;;;;;;;4.50;4.00;;;;;;;16.98;49.20;95081.69;10394846;28;20666;-29